sensor_id;sensor_type;location;lat;lon;timestamp;pressure;altitude;pressure_sealevel;temperature;humidity
18323;BME280;9287;49.456;11.064;2023-04-06T00:02:18;98464.44;;;1.93;76.92
18323;BME280;9287;49.456;11.064;2023-04-06T00:04:47;98459.72;;;1.80;77.63
18323;BME280;9287;49.456;11.064;2023-04-06T00:07:15;98463.44;;;1.89;77.18
18323;BME280;9287;49.456;11.064;2023-04-06T00:09:43;98457.56;;;1.82;76.81
18323;BME280;9287;49.456;11.064;2023-04-06T00:12:12;98460.22;;;1.87;76.43
18323;BME280;9287;49.456;11.064;2023-04-06T00:14:40;98456.19;;;1.85;77.03
18323;BME280;9287;49.456;11.064;2023-04-06T00:17:08;98455.56;;;1.64;77.48
18323;BME280;9287;49.456;11.064;2023-04-06T00:19:36;98456.63;;;1.68;78.35
18323;BME280;9287;49.456;11.064;2023-04-06T00:22:05;98453.25;;;1.81;77.66
18323;BME280;9287;49.456;11.064;2023-04-06T00:24:33;98455.16;;;1.81;77.83
18323;BME280;9287;49.456;11.064;2023-04-06T00:27:01;98450.56;;;1.81;78.67
18323;BME280;9287;49.456;11.064;2023-04-06T00:29:29;98451.38;;;1.82;77.57
18323;BME280;9287;49.456;11.064;2023-04-06T00:31:57;98457.31;;;1.79;78.32
18323;BME280;9287;49.456;11.064;2023-04-06T00:34:25;98450.56;;;1.81;79.74
18323;BME280;9287;49.456;11.064;2023-04-06T00:36:53;98446.78;;;1.82;80.50
18323;BME280;9287;49.456;11.064;2023-04-06T00:39:22;98449.53;;;1.77;80.51
18323;BME280;9287;49.456;11.064;2023-04-06T00:41:51;98448.50;;;1.73;81.38
18323;BME280;9287;49.456;11.064;2023-04-06T00:44:20;98441.28;;;1.68;82.61
18323;BME280;9287;49.456;11.064;2023-04-06T00:46:50;98446.91;;;1.72;81.00
18323;BME280;9287;49.456;11.064;2023-04-06T00:49:18;98437.75;;;1.73;82.37
18323;BME280;9287;49.456;11.064;2023-04-06T00:51:46;98440.19;;;1.69;83.04
18323;BME280;9287;49.456;11.064;2023-04-06T00:54:14;98442.63;;;1.66;83.99
18323;BME280;9287;49.456;11.064;2023-04-06T00:56:43;98436.75;;;1.59;85.40
18323;BME280;9287;49.456;11.064;2023-04-06T00:59:11;98437.81;;;1.63;84.90
18323;BME280;9287;49.456;11.064;2023-04-06T01:01:39;98432.19;;;1.59;84.19
18323;BME280;9287;49.456;11.064;2023-04-06T01:04:08;98424.88;;;1.65;83.19
18323;BME280;9287;49.456;11.064;2023-04-06T01:06:36;98427.09;;;1.58;80.05
18323;BME280;9287;49.456;11.064;2023-04-06T01:09:05;98430.06;;;1.56;77.21
18323;BME280;9287;49.456;11.064;2023-04-06T01:11:33;98429.31;;;1.51;78.11
18323;BME280;9287;49.456;11.064;2023-04-06T01:14:03;98433.00;;;1.60;79.49
18323;BME280;9287;49.456;11.064;2023-04-06T01:16:31;98433.00;;;1.60;76.76
18323;BME280;9287;49.456;11.064;2023-04-06T01:18:58;98427.66;;;1.55;76.24
18323;BME280;9287;49.456;11.064;2023-04-06T01:21:26;98423.81;;;1.61;76.70
18323;BME280;9287;49.456;11.064;2023-04-06T01:23:55;98431.91;;;1.61;78.13
18323;BME280;9287;49.456;11.064;2023-04-06T01:26:23;98424.75;;;1.51;82.98
18323;BME280;9287;49.456;11.064;2023-04-06T01:28:51;98426.09;;;1.49;84.00
18323;BME280;9287;49.456;11.064;2023-04-06T01:31:19;98422.34;;;1.45;84.72
18323;BME280;9287;49.456;11.064;2023-04-06T01:33:47;98419.09;;;1.48;84.28
18323;BME280;9287;49.456;11.064;2023-04-06T01:36:15;98429.97;;;1.37;85.72
18323;BME280;9287;49.456;11.064;2023-04-06T01:38:43;98420.50;;;1.40;84.88
18323;BME280;9287;49.456;11.064;2023-04-06T01:41:12;98416.00;;;1.35;85.86
18323;BME280;9287;49.456;11.064;2023-04-06T01:43:40;98411.22;;;1.22;86.79
18323;BME280;9287;49.456;11.064;2023-04-06T01:46:08;98416.06;;;1.25;86.73
18323;BME280;9287;49.456;11.064;2023-04-06T01:48:36;98411.19;;;1.27;86.29
18323;BME280;9287;49.456;11.064;2023-04-06T01:51:04;98413.34;;;1.30;86.15
18323;BME280;9287;49.456;11.064;2023-04-06T01:53:32;98407.00;;;1.16;86.81
18323;BME280;9287;49.456;11.064;2023-04-06T01:56:00;98412.09;;;1.18;86.53
18323;BME280;9287;49.456;11.064;2023-04-06T01:58:29;98409.63;;;1.21;85.70
18323;BME280;9287;49.456;11.064;2023-04-06T02:00:57;98408.34;;;1.14;85.82
18323;BME280;9287;49.456;11.064;2023-04-06T02:03:25;98407.63;;;1.03;85.54
18323;BME280;9287;49.456;11.064;2023-04-06T02:05:53;98412.44;;;1.06;86.73
18323;BME280;9287;49.456;11.064;2023-04-06T02:08:21;98407.94;;;0.96;87.40
18323;BME280;9287;49.456;11.064;2023-04-06T02:10:48;98409.81;;;1.01;87.67
18323;BME280;9287;49.456;11.064;2023-04-06T02:13:16;98405.22;;;1.01;86.37
18323;BME280;9287;49.456;11.064;2023-04-06T02:15:46;98408.75;;;0.97;86.01
18323;BME280;9287;49.456;11.064;2023-04-06T02:18:13;98408.19;;;1.00;86.73
18323;BME280;9287;49.456;11.064;2023-04-06T02:20:41;98409.28;;;0.94;86.24
18323;BME280;9287;49.456;11.064;2023-04-06T02:23:09;98407.09;;;1.01;86.25
18323;BME280;9287;49.456;11.064;2023-04-06T02:25:37;98411.47;;;0.92;86.07
18323;BME280;9287;49.456;11.064;2023-04-06T02:28:05;98404.41;;;1.01;85.40
18323;BME280;9287;49.456;11.064;2023-04-06T02:30:33;98404.88;;;1.08;84.11
18323;BME280;9287;49.456;11.064;2023-04-06T02:33:02;98407.94;;;0.96;83.16
18323;BME280;9287;49.456;11.064;2023-04-06T02:35:30;98405.53;;;0.95;83.08
18323;BME280;9287;49.456;11.064;2023-04-06T02:37:58;98407.16;;;0.91;84.54
18323;BME280;9287;49.456;11.064;2023-04-06T02:40:26;98402.31;;;0.93;84.11
18323;BME280;9287;49.456;11.064;2023-04-06T02:42:54;98400.16;;;0.95;83.92
18323;BME280;9287;49.456;11.064;2023-04-06T02:45:22;98402.28;;;0.98;83.12
18323;BME280;9287;49.456;11.064;2023-04-06T02:47:49;98400.16;;;0.95;83.15
18323;BME280;9287;49.456;11.064;2023-04-06T02:50:19;98411.03;;;0.75;85.35
18323;BME280;9287;49.456;11.064;2023-04-06T02:52:46;98412.06;;;0.84;83.99
18323;BME280;9287;49.456;11.064;2023-04-06T02:55:14;98405.31;;;0.86;83.82
18323;BME280;9287;49.456;11.064;2023-04-06T02:57:42;98409.38;;;0.84;84.20
18323;BME280;9287;49.456;11.064;2023-04-06T03:00:11;98402.94;;;0.80;85.13
18323;BME280;9287;49.456;11.064;2023-04-06T03:02:39;98403.50;;;0.77;84.77
18323;BME280;9287;49.456;11.064;2023-04-06T03:05:07;98415.06;;;0.72;85.91
18323;BME280;9287;49.456;11.064;2023-04-06T03:07:36;98403.56;;;0.66;86.42
18323;BME280;9287;49.456;11.064;2023-04-06T03:10:05;98405.66;;;0.75;86.24
18323;BME280;9287;49.456;11.064;2023-04-06T03:12:33;98407.22;;;0.86;85.05
18323;BME280;9287;49.456;11.064;2023-04-06T03:15:01;98411.56;;;0.72;86.39
18323;BME280;9287;49.456;11.064;2023-04-06T03:19:56;98408.72;;;0.53;88.42
18323;BME280;9287;49.456;11.064;2023-04-06T03:22:24;98401.44;;;0.58;88.61
18323;BME280;9287;49.456;11.064;2023-04-06T03:24:53;98409.41;;;0.74;87.45
18323;BME280;9287;49.456;11.064;2023-04-06T03:27:21;98406.56;;;0.55;88.16
18323;BME280;9287;49.456;11.064;2023-04-06T03:29:49;98409.50;;;0.58;88.76
18323;BME280;9287;49.456;11.064;2023-04-06T03:32:17;98412.25;;;0.48;89.84
18323;BME280;9287;49.456;11.064;2023-04-06T03:34:44;98410.13;;;0.45;90.20
18323;BME280;9287;49.456;11.064;2023-04-06T03:37:12;98411.72;;;0.46;91.23
18323;BME280;9287;49.456;11.064;2023-04-06T03:39:40;98413.94;;;0.29;92.26
18323;BME280;9287;49.456;11.064;2023-04-06T03:42:09;98405.31;;;0.37;91.96
18323;BME280;9287;49.456;11.064;2023-04-06T03:44:37;98413.91;;;0.39;91.60
18323;BME280;9287;49.456;11.064;2023-04-06T03:47:05;98415.47;;;0.50;90.69
18323;BME280;9287;49.456;11.064;2023-04-06T03:49:32;98417.13;;;0.41;92.38
18323;BME280;9287;49.456;11.064;2023-04-06T03:52:01;98419.31;;;0.29;92.60
18323;BME280;9287;49.456;11.064;2023-04-06T03:54:28;98416.59;;;0.39;91.89
18323;BME280;9287;49.456;11.064;2023-04-06T03:56:56;98421.06;;;0.54;90.94
18323;BME280;9287;49.456;11.064;2023-04-06T03:59:25;98417.91;;;0.42;90.40
18323;BME280;9287;49.456;11.064;2023-04-06T04:01:53;98421.94;;;0.44;91.69
18323;BME280;9287;49.456;11.064;2023-04-06T04:04:21;98426.84;;;0.22;94.27
18323;BME280;9287;49.456;11.064;2023-04-06T04:06:49;98431.22;;;0.08;95.46
18323;BME280;9287;49.456;11.064;2023-04-06T04:09:17;98425.84;;;0.03;96.44
18323;BME280;9287;49.456;11.064;2023-04-06T04:11:45;98428.47;;;0.23;94.47
18323;BME280;9287;49.456;11.064;2023-04-06T04:14:13;98433.31;;;0.21;94.62
18323;BME280;9287;49.456;11.064;2023-04-06T04:16:42;98425.78;;;0.23;94.89
18323;BME280;9287;49.456;11.064;2023-04-06T04:19:10;98424.16;;;0.27;94.95
18323;BME280;9287;49.456;11.064;2023-04-06T04:21:42;98429.00;;;0.20;95.19
18323;BME280;9287;49.456;11.064;2023-04-06T04:24:11;98427.50;;;-0.07;95.73
18323;BME280;9287;49.456;11.064;2023-04-06T04:26:40;98428.03;;;-0.10;96.97
18323;BME280;9287;49.456;11.064;2023-04-06T04:29:08;98428.53;;;0.08;95.07
18323;BME280;9287;49.456;11.064;2023-04-06T04:31:36;98434.97;;;0.02;94.23
18323;BME280;9287;49.456;11.064;2023-04-06T04:34:05;98428.00;;;0.00;94.18
18323;BME280;9287;49.456;11.064;2023-04-06T04:36:34;98436.09;;;-0.15;95.04
18323;BME280;9287;49.456;11.064;2023-04-06T04:39:02;98429.09;;;-0.06;95.62
18323;BME280;9287;49.456;11.064;2023-04-06T04:41:30;98429.91;;;-0.10;95.76
18323;BME280;9287;49.456;11.064;2023-04-06T04:43:58;98430.72;;;-0.05;94.00
18323;BME280;9287;49.456;11.064;2023-04-06T04:46:25;98426.41;;;-0.01;94.02
18323;BME280;9287;49.456;11.064;2023-04-06T04:48:53;98432.00;;;0.13;92.06
18323;BME280;9287;49.456;11.064;2023-04-06T04:51:23;98435.50;;;0.14;92.60
18323;BME280;9287;49.456;11.064;2023-04-06T04:53:51;98433.84;;;0.18;93.95
18323;BME280;9287;49.456;11.064;2023-04-06T04:56:20;98437.66;;;0.12;93.86
18323;BME280;9287;49.456;11.064;2023-04-06T04:58:48;98439.53;;;0.16;93.18
18323;BME280;9287;49.456;11.064;2023-04-06T05:01:16;98436.56;;;0.13;92.83
18323;BME280;9287;49.456;11.064;2023-04-06T05:03:45;98439.22;;;0.18;92.75
18323;BME280;9287;49.456;11.064;2023-04-06T05:06:13;98436.84;;;0.16;92.80
18323;BME280;9287;49.456;11.064;2023-04-06T05:08:42;98443.28;;;0.05;94.37
18323;BME280;9287;49.456;11.064;2023-04-06T05:11:11;98441.91;;;0.18;94.17
18323;BME280;9287;49.456;11.064;2023-04-06T05:13:39;98446.78;;;0.16;93.52
18323;BME280;9287;49.456;11.064;2023-04-06T05:16:07;98444.09;;;0.16;93.99
18323;BME280;9287;49.456;11.064;2023-04-06T05:18:35;98445.16;;;0.15;93.80
18323;BME280;9287;49.456;11.064;2023-04-06T05:21:03;98447.84;;;0.15;93.65
18323;BME280;9287;49.456;11.064;2023-04-06T05:23:32;98439.00;;;0.14;93.37
18323;BME280;9287;49.456;11.064;2023-04-06T05:26:01;98441.34;;;0.26;92.69
18323;BME280;9287;49.456;11.064;2023-04-06T05:28:29;98435.94;;;0.36;92.50
18323;BME280;9287;49.456;11.064;2023-04-06T05:30:57;98441.28;;;0.41;92.55
18323;BME280;9287;49.456;11.064;2023-04-06T05:33:25;98452.56;;;0.43;92.11
18323;BME280;9287;49.456;11.064;2023-04-06T05:35:53;98452.56;;;0.43;92.72
18323;BME280;9287;49.456;11.064;2023-04-06T05:38:21;98443.97;;;0.46;91.48
18323;BME280;9287;49.456;11.064;2023-04-06T05:40:49;98455.75;;;0.55;91.82
18323;BME280;9287;49.456;11.064;2023-04-06T05:43:19;98455.72;;;0.65;89.34
18323;BME280;9287;49.456;11.064;2023-04-06T05:45:48;98453.50;;;0.78;87.29
18323;BME280;9287;49.456;11.064;2023-04-06T05:48:16;98450.28;;;0.76;86.57
18323;BME280;9287;49.456;11.064;2023-04-06T05:50:48;98459.97;;;0.72;87.11
18323;BME280;9287;49.456;11.064;2023-04-06T05:53:16;98461.09;;;0.65;88.32
18323;BME280;9287;49.456;11.064;2023-04-06T05:55:44;98460.47;;;0.79;86.07
18323;BME280;9287;49.456;11.064;2023-04-06T05:58:11;98457.22;;;0.82;86.22
18323;BME280;9287;49.456;11.064;2023-04-06T06:00:41;98460.66;;;0.92;85.03
18323;BME280;9287;49.456;11.064;2023-04-06T06:03:12;98458.75;;;0.98;84.07
18323;BME280;9287;49.456;11.064;2023-04-06T06:05:41;98455.88;;;1.23;81.49
18323;BME280;9287;49.456;11.064;2023-04-06T06:08:09;98462.94;;;1.19;82.38
18323;BME280;9287;49.456;11.064;2023-04-06T06:10:38;98460.88;;;1.40;80.32
18323;BME280;9287;49.456;11.064;2023-04-06T06:13:06;98459.03;;;1.35;80.50
18323;BME280;9287;49.456;11.064;2023-04-06T06:15:34;98469.81;;;1.35;80.08
18323;BME280;9287;49.456;11.064;2023-04-06T06:18:04;98464.63;;;1.44;79.84
18323;BME280;9287;49.456;11.064;2023-04-06T06:20:32;98459.44;;;1.53;79.02
18323;BME280;9287;49.456;11.064;2023-04-06T06:23:00;98464.34;;;1.46;79.37
18323;BME280;9287;49.456;11.064;2023-04-06T06:25:27;98469.16;;;1.49;79.38
18323;BME280;9287;49.456;11.064;2023-04-06T06:27:57;98468.34;;;1.82;78.17
18323;BME280;9287;49.456;11.064;2023-04-06T06:30:25;98465.03;;;1.90;76.66
18323;BME280;9287;49.456;11.064;2023-04-06T06:32:53;98473.53;;;2.02;74.85
18323;BME280;9287;49.456;11.064;2023-04-06T06:35:22;98471.44;;;1.94;74.27
18323;BME280;9287;49.456;11.064;2023-04-06T06:37:50;98471.00;;;2.11;74.30
18323;BME280;9287;49.456;11.064;2023-04-06T06:40:18;98476.53;;;2.25;72.40
18323;BME280;9287;49.456;11.064;2023-04-06T06:42:50;98472.91;;;3.01;68.70
18323;BME280;9287;49.456;11.064;2023-04-06T06:45:18;98474.44;;;3.77;63.56
18323;BME280;9287;49.456;11.064;2023-04-06T06:47:46;98474.34;;;3.49;63.96
18323;BME280;9287;49.456;11.064;2023-04-06T06:50:14;98475.34;;;4.46;60.21
18323;BME280;9287;49.456;11.064;2023-04-06T06:52:44;98465.53;;;5.94;53.92
18323;BME280;9287;49.456;11.064;2023-04-06T06:55:12;98468.69;;;8.48;48.23
18323;BME280;9287;49.456;11.064;2023-04-06T06:57:39;98465.19;;;10.46;42.78
18323;BME280;9287;49.456;11.064;2023-04-06T07:00:09;98466.09;;;12.67;37.72
18323;BME280;9287;49.456;11.064;2023-04-06T07:02:39;98465.25;;;11.75;38.50
18323;BME280;9287;49.456;11.064;2023-04-06T07:05:07;98463.22;;;13.80;36.32
18323;BME280;9287;49.456;11.064;2023-04-06T07:07:54;98459.78;;;13.29;35.51
18323;BME280;9287;49.456;11.064;2023-04-06T07:10:22;98465.34;;;14.10;33.47
18323;BME280;9287;49.456;11.064;2023-04-06T07:12:50;98468.72;;;16.41;32.27
18323;BME280;9287;49.456;11.064;2023-04-06T07:15:18;98467.47;;;16.34;31.60
18323;BME280;9287;49.456;11.064;2023-04-06T07:17:46;98469.38;;;15.07;32.04
18323;BME280;9287;49.456;11.064;2023-04-06T07:20:15;98465.16;;;15.13;31.16
18323;BME280;9287;49.456;11.064;2023-04-06T07:22:43;98471.00;;;16.35;29.74
18323;BME280;9287;49.456;11.064;2023-04-06T07:25:13;98469.09;;;14.89;30.64
18323;BME280;9287;49.456;11.064;2023-04-06T07:27:41;98461.88;;;16.64;29.17
18323;BME280;9287;49.456;11.064;2023-04-06T07:30:09;98468.72;;;18.37;26.95
18323;BME280;9287;49.456;11.064;2023-04-06T07:32:37;98472.97;;;16.72;27.91
18323;BME280;9287;49.456;11.064;2023-04-06T07:35:05;98468.72;;;15.70;29.77
18323;BME280;9287;49.456;11.064;2023-04-06T07:37:33;98468.56;;;17.11;28.61
18323;BME280;9287;49.456;11.064;2023-04-06T07:40:01;98471.84;;;16.39;29.03
18323;BME280;9287;49.456;11.064;2023-04-06T07:42:30;98466.41;;;16.90;28.38
18323;BME280;9287;49.456;11.064;2023-04-06T07:44:59;98469.66;;;15.55;30.08
18323;BME280;9287;49.456;11.064;2023-04-06T07:47:27;98470.22;;;17.26;27.73
18323;BME280;9287;49.456;11.064;2023-04-06T07:49:55;98463.44;;;17.86;27.58
18323;BME280;9287;49.456;11.064;2023-04-06T07:52:23;98463.44;;;17.79;26.54
18323;BME280;9287;49.456;11.064;2023-04-06T07:54:51;98455.91;;;19.99;24.58
18323;BME280;9287;49.456;11.064;2023-04-06T07:57:19;98452.47;;;18.11;25.67
18323;BME280;9287;49.456;11.064;2023-04-06T07:59:48;98463.16;;;16.37;27.63
18323;BME280;9287;49.456;11.064;2023-04-06T08:02:16;98455.84;;;16.99;27.96
18323;BME280;9287;49.456;11.064;2023-04-06T08:04:44;98454.81;;;18.01;26.87
18323;BME280;9287;49.456;11.064;2023-04-06T08:07:12;98459.25;;;17.40;27.08
18323;BME280;9287;49.456;11.064;2023-04-06T08:09:39;98460.50;;;18.65;25.97
18323;BME280;9287;49.456;11.064;2023-04-06T08:12:07;98455.72;;;19.26;24.68
18323;BME280;9287;49.456;11.064;2023-04-06T08:14:35;98459.22;;;18.17;25.68
18323;BME280;9287;49.456;11.064;2023-04-06T08:17:04;98456.94;;;18.97;24.91
18323;BME280;9287;49.456;11.064;2023-04-06T08:19:32;98454.81;;;18.01;26.13
18323;BME280;9287;49.456;11.064;2023-04-06T08:22:00;98453.66;;;20.49;24.08
18323;BME280;9287;49.456;11.064;2023-04-06T08:24:28;98462.38;;;20.52;23.85
18323;BME280;9287;49.456;11.064;2023-04-06T08:26:58;98466.78;;;18.44;24.89
18323;BME280;9287;49.456;11.064;2023-04-06T08:29:26;98466.00;;;19.33;24.54
18323;BME280;9287;49.456;11.064;2023-04-06T08:31:54;98459.63;;;19.61;24.59
18323;BME280;9287;49.456;11.064;2023-04-06T08:34:24;98465.13;;;18.12;25.67
18323;BME280;9287;49.456;11.064;2023-04-06T08:36:52;98463.47;;;17.93;26.00
18323;BME280;9287;49.456;11.064;2023-04-06T08:39:20;98467.19;;;17.49;26.40
18323;BME280;9287;49.456;11.064;2023-04-06T08:41:52;98461.06;;;17.77;26.51
18323;BME280;9287;49.456;11.064;2023-04-06T08:44:23;98458.47;;;14.19;29.62
18323;BME280;9287;49.456;11.064;2023-04-06T08:46:51;98460.59;;;17.02;27.03
18323;BME280;9287;49.456;11.064;2023-04-06T08:49:20;98454.91;;;19.33;24.11
18323;BME280;9287;49.456;11.064;2023-04-06T08:51:50;98459.72;;;18.65;24.47
18323;BME280;9287;49.456;11.064;2023-04-06T08:54:18;98463.25;;;17.47;25.89
18323;BME280;9287;49.456;11.064;2023-04-06T08:56:46;98454.53;;;18.56;25.30
18323;BME280;9287;49.456;11.064;2023-04-06T08:59:15;98455.72;;;18.55;24.84
18323;BME280;9287;49.456;11.064;2023-04-06T09:01:44;98462.06;;;19.16;24.79
18323;BME280;9287;49.456;11.064;2023-04-06T09:04:13;98460.28;;;17.11;25.96
18323;BME280;9287;49.456;11.064;2023-04-06T09:06:42;98451.81;;;18.70;24.31
18323;BME280;9287;49.456;11.064;2023-04-06T09:09:11;98460.72;;;17.20;26.07
18323;BME280;9287;49.456;11.064;2023-04-06T09:11:44;98454.25;;;20.12;23.33
18323;BME280;9287;49.456;11.064;2023-04-06T09:14:12;98448.44;;;19.89;24.31
18323;BME280;9287;49.456;11.064;2023-04-06T09:16:40;98450.09;;;19.69;23.50
18323;BME280;9287;49.456;11.064;2023-04-06T09:19:09;98437.31;;;21.10;22.43
18323;BME280;9287;49.456;11.064;2023-04-06T09:21:38;98443.03;;;20.41;23.56
18323;BME280;9287;49.456;11.064;2023-04-06T09:24:07;98438.78;;;20.19;23.27
18323;BME280;9287;49.456;11.064;2023-04-06T09:26:45;98430.06;;;20.16;23.54
18323;BME280;9287;49.456;11.064;2023-04-06T09:29:22;98433.06;;;20.43;22.57
18323;BME280;9287;49.456;11.064;2023-04-06T09:31:51;98438.47;;;20.68;22.04
18323;BME280;9287;49.456;11.064;2023-04-06T09:34:22;98428.81;;;19.30;23.21
18323;BME280;9287;49.456;11.064;2023-04-06T09:36:50;98430.84;;;21.24;21.61
18323;BME280;9287;49.456;11.064;2023-04-06T09:39:20;98424.56;;;21.13;21.72
18323;BME280;9287;49.456;11.064;2023-04-06T09:41:52;98422.44;;;22.53;20.83
18323;BME280;9287;49.456;11.064;2023-04-06T09:44:20;98432.16;;;22.14;20.63
18323;BME280;9287;49.456;11.064;2023-04-06T09:46:53;98420.53;;;16.68;25.92
18323;BME280;9287;49.456;11.064;2023-04-06T09:49:27;98421.66;;;19.43;23.15
18323;BME280;9287;49.456;11.064;2023-04-06T09:51:58;98417.47;;;20.01;22.18
18323;BME280;9287;49.456;11.064;2023-04-06T09:54:28;98417.97;;;20.55;21.94
18323;BME280;9287;49.456;11.064;2023-04-06T09:57:04;98403.03;;;22.49;20.42
18323;BME280;9287;49.456;11.064;2023-04-06T09:59:42;98418.53;;;20.80;22.08
18323;BME280;9287;49.456;11.064;2023-04-06T10:02:18;98419.78;;;20.13;21.95
18323;BME280;9287;49.456;11.064;2023-04-06T10:04:53;98407.50;;;19.09;23.55
18323;BME280;9287;49.456;11.064;2023-04-06T10:07:23;98402.56;;;17.57;25.23
18323;BME280;9287;49.456;11.064;2023-04-06T10:09:53;98409.75;;;19.61;23.51
18323;BME280;9287;49.456;11.064;2023-04-06T10:12:23;98405.13;;;19.19;23.45
18323;BME280;9287;49.456;11.064;2023-04-06T10:14:51;98396.38;;;17.92;24.08
18323;BME280;9287;49.456;11.064;2023-04-06T10:17:19;98401.97;;;18.14;24.91
18323;BME280;9287;49.456;11.064;2023-04-06T10:19:51;98409.78;;;15.75;27.20
18323;BME280;9287;49.456;11.064;2023-04-06T10:22:26;98402.59;;;16.44;26.04
18323;BME280;9287;49.456;11.064;2023-04-06T10:24:56;98389.63;;;16.96;26.10
18323;BME280;9287;49.456;11.064;2023-04-06T10:27:29;98394.22;;;15.89;25.76
18323;BME280;9287;49.456;11.064;2023-04-06T10:30:02;98391.69;;;18.21;24.92
18323;BME280;9287;49.456;11.064;2023-04-06T10:32:34;98389.88;;;17.49;24.33
18323;BME280;9287;49.456;11.064;2023-04-06T10:35:10;98394.47;;;17.20;25.29
18323;BME280;9287;49.456;11.064;2023-04-06T10:37:50;98389.34;;;16.60;25.92
18323;BME280;9287;49.456;11.064;2023-04-06T10:40:21;98385.31;;;17.85;24.60
18323;BME280;9287;49.456;11.064;2023-04-06T10:42:52;98390.03;;;19.37;23.85
18323;BME280;9287;49.456;11.064;2023-04-06T10:45:21;98379.84;;;18.99;24.11
18323;BME280;9287;49.456;11.064;2023-04-06T10:47:50;98375.09;;;18.21;24.79
18323;BME280;9287;49.456;11.064;2023-04-06T10:50:20;98368.06;;;18.63;24.60
18323;BME280;9287;49.456;11.064;2023-04-06T10:52:58;98367.88;;;16.36;25.79
18323;BME280;9287;49.456;11.064;2023-04-06T10:55:27;98376.16;;;15.95;27.08
18323;BME280;9287;49.456;11.064;2023-04-06T10:57:57;98370.34;;;15.07;27.15
18323;BME280;9287;49.456;11.064;2023-04-06T11:00:25;98364.81;;;16.48;26.32
18323;BME280;9287;49.456;11.064;2023-04-06T11:03:08;98355.94;;;16.21;26.19
18323;BME280;9287;49.456;11.064;2023-04-06T11:05:36;98359.75;;;15.36;27.29
18323;BME280;9287;49.456;11.064;2023-04-06T11:08:05;98359.16;;;14.93;27.39
18323;BME280;9287;49.456;11.064;2023-04-06T11:10:33;98363.94;;;16.37;25.99
18323;BME280;9287;49.456;11.064;2023-04-06T11:13:02;98357.00;;;13.42;30.00
18323;BME280;9287;49.456;11.064;2023-04-06T11:15:34;98346.13;;;15.16;27.64
18323;BME280;9287;49.456;11.064;2023-04-06T11:18:04;98352.06;;;15.52;26.79
18323;BME280;9287;49.456;11.064;2023-04-06T11:20:32;98351.72;;;14.18;28.00
18323;BME280;9287;49.456;11.064;2023-04-06T11:23:00;98338.53;;;16.10;26.54
18323;BME280;9287;49.456;11.064;2023-04-06T11:25:30;98344.63;;;16.85;26.40
18323;BME280;9287;49.456;11.064;2023-04-06T11:27:59;98345.19;;;17.15;25.55
18323;BME280;9287;49.456;11.064;2023-04-06T11:30:30;98331.56;;;17.58;24.99
18323;BME280;9287;49.456;11.064;2023-04-06T11:33:00;98326.19;;;17.03;25.17
18323;BME280;9287;49.456;11.064;2023-04-06T11:35:31;98327.44;;;17.09;25.44
18323;BME280;9287;49.456;11.064;2023-04-06T11:38:02;98327.13;;;17.28;24.73
18323;BME280;9287;49.456;11.064;2023-04-06T11:40:30;98320.25;;;16.94;25.51
18323;BME280;9287;49.456;11.064;2023-04-06T11:42:59;98330.94;;;16.48;24.88
18323;BME280;9287;49.456;11.064;2023-04-06T11:45:39;98320.88;;;16.66;25.16
18323;BME280;9287;49.456;11.064;2023-04-06T11:48:18;98317.81;;;16.82;25.18
18323;BME280;9287;49.456;11.064;2023-04-06T11:50:47;98321.28;;;16.68;25.33
18323;BME280;9287;49.456;11.064;2023-04-06T11:53:15;98318.91;;;16.66;25.69
18323;BME280;9287;49.456;11.064;2023-04-06T11:55:43;98313.91;;;16.31;25.85
18323;BME280;9287;49.456;11.064;2023-04-06T11:58:13;98304.50;;;16.98;25.38
18323;BME280;9287;49.456;11.064;2023-04-06T12:00:43;98307.72;;;17.07;25.41
18323;BME280;9287;49.456;11.064;2023-04-06T12:03:13;98304.63;;;17.26;25.40
18323;BME280;9287;49.456;11.064;2023-04-06T12:05:42;98300.16;;;16.93;25.98
18323;BME280;9287;49.456;11.064;2023-04-06T12:08:10;98303.41;;;17.13;25.90
18323;BME280;9287;49.456;11.064;2023-04-06T12:10:38;98297.84;;;17.06;24.77
18323;BME280;9287;49.456;11.064;2023-04-06T12:13:06;98296.91;;;17.64;24.99
18323;BME280;9287;49.456;11.064;2023-04-06T12:15:34;98297.34;;;17.98;24.19
18323;BME280;9287;49.456;11.064;2023-04-06T12:18:03;98284.31;;;17.98;24.57
18323;BME280;9287;49.456;11.064;2023-04-06T12:20:31;98288.25;;;18.29;24.36
18323;BME280;9287;49.456;11.064;2023-04-06T12:22:59;98296.13;;;18.59;23.60
18323;BME280;9287;49.456;11.064;2023-04-06T12:25:27;98295.91;;;17.10;24.82
18323;BME280;9287;49.456;11.064;2023-04-06T12:27:56;98277.56;;;17.85;24.58
18323;BME280;9287;49.456;11.064;2023-04-06T12:30:24;98286.25;;;18.37;24.53
18323;BME280;9287;49.456;11.064;2023-04-06T12:32:52;98285.47;;;18.19;23.73
18323;BME280;9287;49.456;11.064;2023-04-06T12:35:21;98289.44;;;18.11;24.20
18323;BME280;9287;49.456;11.064;2023-04-06T12:37:49;98285.09;;;18.27;23.74
18323;BME280;9287;49.456;11.064;2023-04-06T12:40:17;98276.34;;;18.57;23.18
18323;BME280;9287;49.456;11.064;2023-04-06T12:42:45;98279.16;;;18.22;23.74
18323;BME280;9287;49.456;11.064;2023-04-06T12:45:13;98280.22;;;17.35;23.95
18323;BME280;9287;49.456;11.064;2023-04-06T12:47:41;98277.28;;;16.31;24.61
18323;BME280;9287;49.456;11.064;2023-04-06T12:50:09;98269.84;;;16.97;25.29
18323;BME280;9287;49.456;11.064;2023-04-06T12:52:38;98267.69;;;15.29;26.60
18323;BME280;9287;49.456;11.064;2023-04-06T12:55:07;98270.25;;;15.49;27.26
18323;BME280;9287;49.456;11.064;2023-04-06T12:57:35;98268.44;;;15.26;27.09
18323;BME280;9287;49.456;11.064;2023-04-06T13:00:05;98280.81;;;15.10;28.11
18323;BME280;9287;49.456;11.064;2023-04-06T13:02:36;98272.03;;;14.97;28.44
18323;BME280;9287;49.456;11.064;2023-04-06T13:05:04;98261.34;;;14.09;28.60
18323;BME280;9287;49.456;11.064;2023-04-06T13:07:32;98259.81;;;14.38;28.74
18323;BME280;9287;49.456;11.064;2023-04-06T13:10:02;98256.75;;;14.70;28.31
18323;BME280;9287;49.456;11.064;2023-04-06T13:12:29;98260.81;;;14.49;28.66
18323;BME280;9287;49.456;11.064;2023-04-06T13:14:57;98269.13;;;14.56;28.47
18323;BME280;9287;49.456;11.064;2023-04-06T13:17:27;98270.06;;;14.15;28.25